Elk Springs, Colorado
Current Conditions -  °F | °C
As of 1:53 PM on Friday 24 Oct 2014 (Local Time) from KEEO Reporting Station
Clear Clear  
Wind Chill: 72°   Ceiling: Unl
Heat Index: 72°   Visibility: 10mi
Dew Point: 25°   Wind: 13mph
Humidity: 17%   Direction: 260°W
Pressure: 30.28"   Gusts: NA
Location:  40.3181°N, 108.361°W
Report Text: KEEO 241953Z AUTO 26011KT 10SM CLR 22/M04 A3028 RMK AO2 SLP186 T02221039
Loading
Personal Weather Stations






























Interactive Weather Map
Tropical Storm Tracking
New forecast layout! Learn more

10-Day Weather Forecast

Advertisements
Track Severe Weather on mobile